Discovery Coast — WDG2458 — position and weather

sailwx.info

Track history (hours):
 
Tides and Currents Weather Stations Pressure Air Temp Water Temp Dewpoint Dewpoint Depression Visibility Wind Speed Wind Dir Waves Ship Positions

Discovery Coast

Owner: Dann Marine Towing, LC, Chesapeake City, MD. More information available from US FCC via Universal Licensing System.

Last reported at 2018-Jan-20 06:14 UTC. Time now 2018-Jan-21 12:41 UTC.
Position N 39°27' W 075°59'.

Length 31 m; draft 4.3 m.

Type: Tug. MMSI: 367515850.

Date/timePositionNaut miles runAvg speedWind from/ knotsBaromVisibWave heightAir tempDewpointWater temp
2018-Jan-20 06:14N 39°27' W 075°59'0 0.0
2018-Jan-20 06:00N 39°27' W 075°59'0 0.0
2018-Jan-20 03:14N 39°27' W 075°59'0 0.0
2018-Jan-20 03:00N 39°27' W 075°59'0 0.0
2018-Jan-20 02:31N 39°27' W 075°59'0 0.0
2018-Jan-20 02:00N 39°27' W 075°59'0 0.0
2018-Jan-20 01:31N 39°27' W 075°59'0 0.6
2018-Jan-20 01:00N 39°27' W 075°59'4 8.7
2018-Jan-20 00:30N 39°30' W 075°55'4 8.5
2018-Jan-20 00:00N 39°32' W 075°50'1 1.5
2018-Jan-19 23:30N 39°32' W 075°49'4 8.0
2018-Jan-19 23:00N 39°30' W 075°54'5 9.6
2018-Jan-19 22:29N 39°27' W 075°59'1 3.1
2018-Jan-19 22:00N 39°28' W 075°58'5 9.9
2018-Jan-19 21:31N 39°31' W 075°53'1 2.8
2018-Jan-19 21:00N 39°32' W 075°51'4 8.3
2018-Jan-19 20:30N 39°30' W 075°56'4 8.5
2018-Jan-19 20:01N 39°27' W 075°60'0 0.1
2018-Jan-19 19:31N 39°27' W 075°59'0 0.0
2018-Jan-19 19:00N 39°27' W 075°59'0 0.0
2018-Jan-19 18:30N 39°27' W 075°59'0 0.0
2018-Jan-19 18:00N 39°27' W 075°59'0 0.0
2018-Jan-19 17:30N 39°27' W 075°59'0 0.0
2018-Jan-19 17:00N 39°27' W 075°59'0 0.0
2018-Jan-19 16:31N 39°27' W 075°59'0 0.0
2018-Jan-19 16:00N 39°27' W 075°59'0 0.0
2018-Jan-19 15:30N 39°27' W 075°59'4 7.6
2018-Jan-19 15:00N 39°29' W 075°56'4 8.3
2018-Jan-19 14:31N 39°32' W 075°52'0 0.5
2018-Jan-19 14:01N 39°32' W 075°52'611.2
2018-Jan-19 13:31N 39°28' W 075°58'1 2.2
2018-Jan-19 13:00N 39°27' W 075°59'4 8.7
2018-Jan-19 12:31N 39°30' W 075°55'4 7.9
2018-Jan-19 12:01N 39°32' W 075°50'0 0.8
2018-Jan-19 11:31N 39°32' W 075°49'2 3.2
2018-Jan-19 11:00N 39°32' W 075°52'5 9.2
2018-Jan-19 10:31N 39°29' W 075°56'4 7.0
2018-Jan-19 10:01N 39°27' W 075°59'0 0.0
2018-Jan-19 09:31N 39°27' W 075°59'0 0.0
2018-Jan-19 09:00N 39°27' W 075°59'0 0.0
2018-Jan-19 08:31N 39°27' W 075°59'0 0.0
2018-Jan-19 08:00N 39°27' W 075°59'0 0.0
2018-Jan-19 07:30N 39°27' W 075°59'0 0.0
2018-Jan-19 07:00N 39°27' W 075°59'0 0.0
2018-Jan-19 06:30N 39°27' W 075°59'0 0.0
2018-Jan-19 05:59N 39°27' W 075°59'4 7.9
2018-Jan-19 05:30N 39°30' W 075°56'4 8.8
2018-Jan-19 05:00N 39°32' W 075°51'0 0.5
2018-Jan-19 04:31N 39°32' W 075°52'5 9.9
2018-Jan-19 04:01N 39°29' W 075°57'3 5.4
2018-Jan-19 03:31N 39°27' W 075°59'5 9.4
2018-Jan-19 03:00N 39°30' W 075°55'4 8.6
2018-Jan-19 02:30N 39°32' W 075°50'4 7.2
2018-Jan-19 02:01N 39°31' W 075°54'611.3
2018-Jan-19 01:30N 39°27' W 075°59'0 0.0
2018-Jan-19 01:00N 39°27' W 075°59'3 6.3
2018-Jan-19 00:30N 39°29' W 075°57'4 8.8
2018-Jan-19 00:00N 39°32' W 075°52'2 4.2
2018-Jan-18 23:30N 39°32' W 075°49'0 0.0
2018-Jan-18 23:01N 39°32' W 075°49'0 0.0
2018-Jan-18 22:30N 39°32' W 075°49'0 0.0
2018-Jan-18 22:00N 39°32' W 075°49'3 6.1
2018-Jan-18 21:30N 39°31' W 075°53'5 9.3
2018-Jan-18 21:00N 39°28' W 075°58'2 2.1
2018-Jan-18 20:07N 39°27' W 075°59'0 0.0
2018-Jan-18 20:00N 39°27' W 075°59'0 0.0
2018-Jan-18 19:30N 39°27' W 075°59'0 0.0
2018-Jan-18 19:01N 39°27' W 075°59'0 0.0
2018-Jan-18 18:30N 39°27' W 075°59'5 9.3
2018-Jan-18 18:00N 39°30' W 075°55'5 9.9
2018-Jan-18 17:30N 39°32' W 075°49'0 0.0
2018-Jan-18 17:00N 39°32' W 075°49'0 0.0
2018-Jan-18 16:30N 39°32' W 075°49'0 0.0
2018-Jan-18 16:00N 39°32' W 075°49'0 0.0
2018-Jan-18 15:30N 39°32' W 075°49'0 0.0
2018-Jan-18 15:00N 39°32' W 075°49'0 1.0
2018-Jan-18 14:30N 39°32' W 075°50'4 8.0
2018-Jan-18 14:01N 39°30' W 075°55'4 8.7
2018-Jan-18 13:30N 39°27' W 075°59'0 0.0
2018-Jan-18 13:00N 39°27' W 075°59'5 9.2
2018-Jan-18 12:30N 39°30' W 075°55'4 8.3
2018-Jan-18 12:01N 39°32' W 075°50'0 0.2
2018-Jan-18 11:30N 39°32' W 075°49'0 0.1
2018-Jan-18 11:00N 39°32' W 075°50'0 0.0
2018-Jan-18 10:30N 39°32' W 075°50'2 4.2
2018-Jan-18 10:01N 39°32' W 075°52'5 9.7
2018-Jan-18 09:31N 39°29' W 075°57'3 5.3
2018-Jan-18 09:01N 39°27' W 075°59'0 0.0
2018-Jan-18 08:29N 39°27' W 075°59'0 0.0
2018-Jan-18 08:00N 39°27' W 075°59'0 0.0
2018-Jan-18 07:31N 39°27' W 075°59'0 0.0
2018-Jan-18 07:00N 39°27' W 075°59'0 0.0
2018-Jan-18 06:30N 39°27' W 075°59'0 0.0
2018-Jan-18 06:00N 39°27' W 075°59'0 0.0
2018-Jan-18 05:31N 39°27' W 075°59'0 0.0
2018-Jan-18 05:00N 39°27' W 075°59'0 0.0
2018-Jan-18 04:31N 39°27' W 075°59'0 0.0
2018-Jan-18 04:01N 39°27' W 075°59'0 0.0
2018-Jan-18 03:30N 39°27' W 075°59'0 0.0
2018-Jan-18 03:01N 39°27' W 075°59'0 0.0
2018-Jan-18 02:30N 39°27' W 075°59'0 0.0
2018-Jan-18 02:01N 39°27' W 075°59'0 0.0
2018-Jan-18 01:31N 39°27' W 075°59'0 0.0
2018-Jan-18 01:01N 39°27' W 075°59'8 7.5
2018-Jan-18 00:00N 39°32' W 075°52'0 7.7
2018-Jan-17 23:58N 39°32' W 075°52'  
2018-Jan-12 15:00N 39°32' W 075°49'4 7.7
2018-Jan-12 14:31N 39°31' W 075°54'3 5.8
2018-Jan-12 14:00N 39°29' W 075°57'3 5.5
2018-Jan-12 13:30N 39°27' W 075°59'0 0.0
2018-Jan-12 13:01N 39°27' W 075°59'0 0.0
2018-Jan-12 12:31N 39°27' W 075°59'0 0.0
2018-Jan-12 12:01N 39°27' W 075°59'0 0.0
2018-Jan-12 11:30N 39°27' W 075°59'0 0.0
2018-Jan-12 11:00N 39°27' W 075°59'0 0.0
2018-Jan-12 10:31N 39°27' W 075°59'0 0.0
2018-Jan-12 10:00N 39°27' W 075°59'0 0.0
2018-Jan-12 09:30N 39°27' W 075°59'0 0.0
2018-Jan-12 09:01N 39°27' W 075°59'0 0.0
2018-Jan-12 08:30N 39°27' W 075°59'0 0.0
2018-Jan-12 08:00N 39°27' W 075°59'0 0.0
2018-Jan-12 07:31N 39°27' W 075°59'0 0.0
2018-Jan-12 07:00N 39°27' W 075°59'0 0.0
2018-Jan-12 06:30N 39°27' W 075°59'0 0.0
2018-Jan-12 06:01N 39°27' W 075°59'0 0.0
2018-Jan-12 05:30N 39°27' W 075°59'0 0.0
2018-Jan-12 05:00N 39°27' W 075°59'0 0.0
2018-Jan-12 04:30N 39°27' W 075°59'0 0.0
2018-Jan-12 04:01N 39°27' W 075°59'0 0.0
2018-Jan-12 03:31N 39°27' W 075°59'0 0.0
2018-Jan-12 03:00N 39°27' W 075°59'0 0.0
2018-Jan-12 02:29N 39°27' W 075°59'0 0.0
2018-Jan-12 02:00N 39°27' W 075°59'0 0.0
2018-Jan-12 01:30N 39°27' W 075°59'0 0.0
2018-Jan-12 01:00N 39°27' W 075°59'0 0.0
2018-Jan-12 00:30N 39°27' W 075°59'0 0.0
2018-Jan-12 00:00N 39°27' W 075°59'0 0.0
2018-Jan-11 23:30N 39°27' W 075°59'0 0.0
2018-Jan-11 22:59N 39°27' W 075°59'1 1.6
2018-Jan-11 22:30N 39°27' W 075°59'3 5.6
2018-Jan-11 22:01N 39°29' W 075°56'4 7.2
2018-Jan-11 21:31N 39°31' W 075°53'2 4.9
2018-Jan-11 21:00N 39°32' W 075°50'0 0.0
2018-Jan-11 20:31N 39°32' W 075°50'0 0.0
2018-Jan-11 20:00N 39°32' W 075°50'0 0.0
2018-Jan-11 19:31N 39°32' W 075°50'0 0.0
2018-Jan-11 18:59N 39°32' W 075°50'0 0.0
2018-Jan-11 18:31N 39°32' W 075°50'0 0.0
2018-Jan-11 18:01N 39°32' W 075°50'0 0.0
2018-Jan-11 17:31N 39°32' W 075°50'0 0.0
2018-Jan-11 17:00N 39°32' W 075°50'0 0.0
2018-Jan-11 16:31N 39°32' W 075°50'0 0.0
2018-Jan-11 16:01N 39°32' W 075°50'0 0.0
2018-Jan-11 15:30N 39°32' W 075°50'0 0.0
2018-Jan-11 15:01N 39°32' W 075°50'0 0.0
2018-Jan-11 14:30N 39°32' W 075°50'0 0.0
2018-Jan-11 14:00N 39°32' W 075°50'0 0.0
2018-Jan-11 13:29N 39°32' W 075°50'0 0.0
2018-Jan-11 13:01N 39°32' W 075°50'0 0.0
2018-Jan-11 12:30N 39°32' W 075°50'0 0.0
2018-Jan-11 12:00N 39°32' W 075°50'0 0.0
2018-Jan-11 11:30N 39°32' W 075°50'1 1.3
2018-Jan-11 11:00N 39°32' W 075°50'4 7.4
2018-Jan-11 10:30N 39°30' W 075°55'3 5.3
2018-Jan-11 10:00N 39°29' W 075°57'3 5.1
2018-Jan-11 09:30N 39°27' W 075°60'0 0.0
2018-Jan-11 09:00N 39°27' W 075°60'0 0.0
2018-Jan-11 08:30N 39°27' W 075°60'0 0.0
2018-Jan-11 08:00N 39°27' W 075°60'0 0.0
2018-Jan-11 07:30N 39°27' W 075°60'0 0.0
2018-Jan-11 06:59N 39°27' W 075°60'0 0.0
2018-Jan-11 06:30N 39°27' W 075°60'0 0.0
2018-Jan-11 06:01N 39°27' W 075°60'0 0.0
2018-Jan-11 05:30N 39°27' W 075°60'0 0.0
2018-Jan-11 05:00N 39°27' W 075°60'0 0.0
2018-Jan-11 04:31N 39°27' W 075°60'0 0.0
2018-Jan-11 04:01N 39°27' W 075°60'0 0.0
2018-Jan-11 03:31N 39°27' W 075°60'0 0.0
2018-Jan-11 03:01N 39°27' W 075°60'0 0.0
2018-Jan-11 02:30N 39°27' W 075°60'0 0.0
2018-Jan-11 02:01N 39°27' W 075°60'0 0.0
2018-Jan-11 01:29N 39°27' W 075°60'0 0.0
2018-Jan-11 01:00N 39°27' W 075°60'0 0.0
2018-Jan-11 00:31N 39°27' W 075°60'0 0.0
2018-Jan-11 00:01N 39°27' W 075°60'0 0.0
2018-Jan-10 23:31N 39°27' W 075°60'0 0.0
2018-Jan-10 23:00N 39°27' W 075°60'0 0.0
2018-Jan-10 22:31N 39°27' W 075°60'0 0.0
2018-Jan-10 22:01N 39°27' W 075°60'0 0.0
2018-Jan-10 21:31N 39°27' W 075°60'0 0.0
2018-Jan-10 21:01N 39°27' W 075°60'0 0.0
2018-Jan-10 20:31N 39°27' W 075°60'0 0.0
2018-Jan-10 20:00N 39°27' W 075°60'0 0.0
2018-Jan-10 19:30N 39°27' W 075°60'0 0.0
2018-Jan-10 19:01N 39°27' W 075°60'0 0.0
2018-Jan-10 18:30N 39°27' W 075°60'0 0.0
2018-Jan-10 17:59N 39°27' W 075°60'0 0.0
2018-Jan-10 17:31N 39°27' W 075°60'0 0.0
2018-Jan-10 17:00N 39°27' W 075°60'0 0.0
2018-Jan-10 16:30N 39°27' W 075°60'0 0.0
2018-Jan-10 16:00N 39°27' W 075°60'0 0.0
2018-Jan-10 15:30N 39°27' W 075°60'0 0.0
2018-Jan-10 15:00N 39°27' W 075°60'0 0.0
2018-Jan-10 14:30N 39°27' W 075°60'0 0.0
2018-Jan-10 14:01N 39°27' W 075°60'0 0.0
2018-Jan-10 13:30N 39°27' W 075°60'0 0.0
2018-Jan-10 13:01N 39°27' W 075°60'0 0.0
2018-Jan-10 12:30N 39°27' W 075°60'0 0.0
2018-Jan-10 12:01N 39°27' W 075°60'0 0.0
2018-Jan-10 11:30N 39°27' W 075°60'0 0.0
2018-Jan-10 11:00N 39°27' W 075°60'0 0.0
2018-Jan-10 10:30N 39°27' W 075°60'0 0.0
2018-Jan-10 10:00N 39°27' W 075°60'0 0.0
2018-Jan-10 09:30N 39°27' W 075°60'0 0.0
2018-Jan-10 09:01N 39°27' W 075°60'0 0.0
2018-Jan-10 08:31N 39°27' W 075°60'0 0.0
2018-Jan-10 08:00N 39°27' W 075°60'0 0.0
2018-Jan-10 07:30N 39°27' W 075°60'0 0.0
2018-Jan-10 07:00N 39°27' W 075°60'0 0.0
2018-Jan-10 06:30N 39°27' W 075°60'  
Track history (hours):
 
Tides and Currents Weather Stations Pressure Air Temp Water Temp Dewpoint Dewpoint Depression Visibility Wind Speed Wind Dir Waves Ship Positions

Discovery Coast

Owner: Dann Marine Towing, LC, Chesapeake City, MD. More information available from US FCC via Universal Licensing System.

Last reported at 2018-Jan-20 06:14 UTC. Time now 2018-Jan-21 12:41 UTC.
Position N 39°27' W 075°59'.

Length 31 m; draft 4.3 m.

Type: Tug. MMSI: 367515850.

Date/timePositionNaut miles runAvg speedWind from/ knotsBaromVisibWave heightAir tempDewpointWater temp
2018-Jan-20 06:14N 39°27' W 075°59'0 0.0
2018-Jan-20 06:00N 39°27' W 075°59'0 0.0
2018-Jan-20 03:14N 39°27' W 075°59'0 0.0
2018-Jan-20 03:00N 39°27' W 075°59'0 0.0
2018-Jan-20 02:31N 39°27' W 075°59'0 0.0
2018-Jan-20 02:00N 39°27' W 075°59'0 0.0
2018-Jan-20 01:31N 39°27' W 075°59'0 0.6
2018-Jan-20 01:00N 39°27' W 075°59'4 8.7
2018-Jan-20 00:30N 39°30' W 075°55'4 8.5
2018-Jan-20 00:00N 39°32' W 075°50'1 1.5
2018-Jan-19 23:30N 39°32' W 075°49'4 8.0
2018-Jan-19 23:00N 39°30' W 075°54'5 9.6
2018-Jan-19 22:29N 39°27' W 075°59'1 3.1
2018-Jan-19 22:00N 39°28' W 075°58'5 9.9
2018-Jan-19 21:31N 39°31' W 075°53'1 2.8
2018-Jan-19 21:00N 39°32' W 075°51'4 8.3
2018-Jan-19 20:30N 39°30' W 075°56'4 8.5
2018-Jan-19 20:01N 39°27' W 075°60'0 0.1
2018-Jan-19 19:31N 39°27' W 075°59'0 0.0
2018-Jan-19 19:00N 39°27' W 075°59'0 0.0
2018-Jan-19 18:30N 39°27' W 075°59'0 0.0
2018-Jan-19 18:00N 39°27' W 075°59'0 0.0
2018-Jan-19 17:30N 39°27' W 075°59'0 0.0
2018-Jan-19 17:00N 39°27' W 075°59'0 0.0
2018-Jan-19 16:31N 39°27' W 075°59'0 0.0
2018-Jan-19 16:00N 39°27' W 075°59'0 0.0
2018-Jan-19 15:30N 39°27' W 075°59'4 7.6
2018-Jan-19 15:00N 39°29' W 075°56'4 8.3
2018-Jan-19 14:31N 39°32' W 075°52'0 0.5
2018-Jan-19 14:01N 39°32' W 075°52'611.2
2018-Jan-19 13:31N 39°28' W 075°58'1 2.2
2018-Jan-19 13:00N 39°27' W 075°59'4 8.7
2018-Jan-19 12:31N 39°30' W 075°55'4 7.9
2018-Jan-19 12:01N 39°32' W 075°50'0 0.8
2018-Jan-19 11:31N 39°32' W 075°49'2 3.2
2018-Jan-19 11:00N 39°32' W 075°52'5 9.2
2018-Jan-19 10:31N 39°29' W 075°56'4 7.0
2018-Jan-19 10:01N 39°27' W 075°59'0 0.0
2018-Jan-19 09:31N 39°27' W 075°59'0 0.0
2018-Jan-19 09:00N 39°27' W 075°59'0 0.0
2018-Jan-19 08:31N 39°27' W 075°59'0 0.0
2018-Jan-19 08:00N 39°27' W 075°59'0 0.0
2018-Jan-19 07:30N 39°27' W 075°59'0 0.0
2018-Jan-19 07:00N 39°27' W 075°59'0 0.0
2018-Jan-19 06:30N 39°27' W 075°59'0 0.0
2018-Jan-19 05:59N 39°27' W 075°59'4 7.9
2018-Jan-19 05:30N 39°30' W 075°56'4 8.8
2018-Jan-19 05:00N 39°32' W 075°51'0 0.5
2018-Jan-19 04:31N 39°32' W 075°52'5 9.9
2018-Jan-19 04:01N 39°29' W 075°57'3 5.4
2018-Jan-19 03:31N 39°27' W 075°59'5 9.4
2018-Jan-19 03:00N 39°30' W 075°55'4 8.6
2018-Jan-19 02:30N 39°32' W 075°50'4 7.2
2018-Jan-19 02:01N 39°31' W 075°54'611.3
2018-Jan-19 01:30N 39°27' W 075°59'0 0.0
2018-Jan-19 01:00N 39°27' W 075°59'3 6.3
2018-Jan-19 00:30N 39°29' W 075°57'4 8.8
2018-Jan-19 00:00N 39°32' W 075°52'2 4.2
2018-Jan-18 23:30N 39°32' W 075°49'0 0.0
2018-Jan-18 23:01N 39°32' W 075°49'0 0.0
2018-Jan-18 22:30N 39°32' W 075°49'0 0.0
2018-Jan-18 22:00N 39°32' W 075°49'3 6.1
2018-Jan-18 21:30N 39°31' W 075°53'5 9.3
2018-Jan-18 21:00N 39°28' W 075°58'2 2.1
2018-Jan-18 20:07N 39°27' W 075°59'0 0.0
2018-Jan-18 20:00N 39°27' W 075°59'0 0.0
2018-Jan-18 19:30N 39°27' W 075°59'0 0.0
2018-Jan-18 19:01N 39°27' W 075°59'0 0.0
2018-Jan-18 18:30N 39°27' W 075°59'5 9.3
2018-Jan-18 18:00N 39°30' W 075°55'5 9.9
2018-Jan-18 17:30N 39°32' W 075°49'0 0.0
2018-Jan-18 17:00N 39°32' W 075°49'0 0.0
2018-Jan-18 16:30N 39°32' W 075°49'0 0.0
2018-Jan-18 16:00N 39°32' W 075°49'0 0.0
2018-Jan-18 15:30N 39°32' W 075°49'0 0.0
2018-Jan-18 15:00N 39°32' W 075°49'0 1.0
2018-Jan-18 14:30N 39°32' W 075°50'4 8.0
2018-Jan-18 14:01N 39°30' W 075°55'4 8.7
2018-Jan-18 13:30N 39°27' W 075°59'0 0.0
2018-Jan-18 13:00N 39°27' W 075°59'5 9.2
2018-Jan-18 12:30N 39°30' W 075°55'4 8.3
2018-Jan-18 12:01N 39°32' W 075°50'0 0.2
2018-Jan-18 11:30N 39°32' W 075°49'0 0.1
2018-Jan-18 11:00N 39°32' W 075°50'0 0.0
2018-Jan-18 10:30N 39°32' W 075°50'2 4.2
2018-Jan-18 10:01N 39°32' W 075°52'5 9.7
2018-Jan-18 09:31N 39°29' W 075°57'3 5.3
2018-Jan-18 09:01N 39°27' W 075°59'0 0.0
2018-Jan-18 08:29N 39°27' W 075°59'0 0.0
2018-Jan-18 08:00N 39°27' W 075°59'0 0.0
2018-Jan-18 07:31N 39°27' W 075°59'0 0.0
2018-Jan-18 07:00N 39°27' W 075°59'0 0.0
2018-Jan-18 06:30N 39°27' W 075°59'0 0.0
2018-Jan-18 06:00N 39°27' W 075°59'0 0.0
2018-Jan-18 05:31N 39°27' W 075°59'0 0.0
2018-Jan-18 05:00N 39°27' W 075°59'0 0.0
2018-Jan-18 04:31N 39°27' W 075°59'0 0.0
2018-Jan-18 04:01N 39°27' W 075°59'0 0.0
2018-Jan-18 03:30N 39°27' W 075°59'0 0.0
2018-Jan-18 03:01N 39°27' W 075°59'0 0.0
2018-Jan-18 02:30N 39°27' W 075°59'0 0.0
2018-Jan-18 02:01N 39°27' W 075°59'0 0.0
2018-Jan-18 01:31N 39°27' W 075°59'0 0.0
2018-Jan-18 01:01N 39°27' W 075°59'8 7.5
2018-Jan-18 00:00N 39°32' W 075°52'0 7.7
2018-Jan-17 23:58N 39°32' W 075°52'  
2018-Jan-12 15:00N 39°32' W 075°49'4 7.7
2018-Jan-12 14:31N 39°31' W 075°54'3 5.8
2018-Jan-12 14:00N 39°29' W 075°57'3 5.5
2018-Jan-12 13:30N 39°27' W 075°59'0 0.0
2018-Jan-12 13:01N 39°27' W 075°59'0 0.0
2018-Jan-12 12:31N 39°27' W 075°59'0 0.0
2018-Jan-12 12:01N 39°27' W 075°59'0 0.0
2018-Jan-12 11:30N 39°27' W 075°59'0 0.0
2018-Jan-12 11:00N 39°27' W 075°59'0 0.0
2018-Jan-12 10:31N 39°27' W 075°59'0 0.0
2018-Jan-12 10:00N 39°27' W 075°59'0 0.0
2018-Jan-12 09:30N 39°27' W 075°59'0 0.0
2018-Jan-12 09:01N 39°27' W 075°59'0 0.0
2018-Jan-12 08:30N 39°27' W 075°59'0 0.0
2018-Jan-12 08:00N 39°27' W 075°59'0 0.0
2018-Jan-12 07:31N 39°27' W 075°59'0 0.0
2018-Jan-12 07:00N 39°27' W 075°59'0 0.0
2018-Jan-12 06:30N 39°27' W 075°59'0 0.0
2018-Jan-12 06:01N 39°27' W 075°59'0 0.0
2018-Jan-12 05:30N 39°27' W 075°59'0 0.0
2018-Jan-12 05:00N 39°27' W 075°59'0 0.0
2018-Jan-12 04:30N 39°27' W 075°59'0 0.0
2018-Jan-12 04:01N 39°27' W 075°59'0 0.0
2018-Jan-12 03:31N 39°27' W 075°59'0 0.0
2018-Jan-12 03:00N 39°27' W 075°59'0 0.0
2018-Jan-12 02:29N 39°27' W 075°59'0 0.0
2018-Jan-12 02:00N 39°27' W 075°59'0 0.0
2018-Jan-12 01:30N 39°27' W 075°59'0 0.0
2018-Jan-12 01:00N 39°27' W 075°59'0 0.0
2018-Jan-12 00:30N 39°27' W 075°59'0 0.0
2018-Jan-12 00:00N 39°27' W 075°59'0 0.0
2018-Jan-11 23:30N 39°27' W 075°59'0 0.0
2018-Jan-11 22:59N 39°27' W 075°59'1 1.6
2018-Jan-11 22:30N 39°27' W 075°59'3 5.6
2018-Jan-11 22:01N 39°29' W 075°56'4 7.2
2018-Jan-11 21:31N 39°31' W 075°53'2 4.9
2018-Jan-11 21:00N 39°32' W 075°50'0 0.0
2018-Jan-11 20:31N 39°32' W 075°50'0 0.0
2018-Jan-11 20:00N 39°32' W 075°50'0 0.0
2018-Jan-11 19:31N 39°32' W 075°50'0 0.0
2018-Jan-11 18:59N 39°32' W 075°50'0 0.0
2018-Jan-11 18:31N 39°32' W 075°50'0 0.0
2018-Jan-11 18:01N 39°32' W 075°50'0 0.0
2018-Jan-11 17:31N 39°32' W 075°50'0 0.0
2018-Jan-11 17:00N 39°32' W 075°50'0 0.0
2018-Jan-11 16:31N 39°32' W 075°50'0 0.0
2018-Jan-11 16:01N 39°32' W 075°50'0 0.0
2018-Jan-11 15:30N 39°32' W 075°50'0 0.0
2018-Jan-11 15:01N 39°32' W 075°50'0 0.0
2018-Jan-11 14:30N 39°32' W 075°50'0 0.0
2018-Jan-11 14:00N 39°32' W 075°50'0 0.0
2018-Jan-11 13:29N 39°32' W 075°50'0 0.0
2018-Jan-11 13:01N 39°32' W 075°50'0 0.0
2018-Jan-11 12:30N 39°32' W 075°50'0 0.0
2018-Jan-11 12:00N 39°32' W 075°50'0 0.0
2018-Jan-11 11:30N 39°32' W 075°50'1 1.3
2018-Jan-11 11:00N 39°32' W 075°50'4 7.4
2018-Jan-11 10:30N 39°30' W 075°55'3 5.3
2018-Jan-11 10:00N 39°29' W 075°57'3 5.1
2018-Jan-11 09:30N 39°27' W 075°60'0 0.0
2018-Jan-11 09:00N 39°27' W 075°60'0 0.0
2018-Jan-11 08:30N 39°27' W 075°60'0 0.0
2018-Jan-11 08:00N 39°27' W 075°60'0 0.0
2018-Jan-11 07:30N 39°27' W 075°60'0 0.0
2018-Jan-11 06:59N 39°27' W 075°60'0 0.0
2018-Jan-11 06:30N 39°27' W 075°60'0 0.0
2018-Jan-11 06:01N 39°27' W 075°60'0 0.0
2018-Jan-11 05:30N 39°27' W 075°60'0 0.0
2018-Jan-11 05:00N 39°27' W 075°60'0 0.0
2018-Jan-11 04:31N 39°27' W 075°60'0 0.0
2018-Jan-11 04:01N 39°27' W 075°60'0 0.0
2018-Jan-11 03:31N 39°27' W 075°60'0 0.0
2018-Jan-11 03:01N 39°27' W 075°60'0 0.0
2018-Jan-11 02:30N 39°27' W 075°60'0 0.0
2018-Jan-11 02:01N 39°27' W 075°60'0 0.0
2018-Jan-11 01:29N 39°27' W 075°60'0 0.0
2018-Jan-11 01:00N 39°27' W 075°60'0 0.0
2018-Jan-11 00:31N 39°27' W 075°60'0 0.0
2018-Jan-11 00:01N 39°27' W 075°60'0 0.0
2018-Jan-10 23:31N 39°27' W 075°60'0 0.0
2018-Jan-10 23:00N 39°27' W 075°60'0 0.0
2018-Jan-10 22:31N 39°27' W 075°60'0 0.0
2018-Jan-10 22:01N 39°27' W 075°60'0 0.0
2018-Jan-10 21:31N 39°27' W 075°60'0 0.0
2018-Jan-10 21:01N 39°27' W 075°60'0 0.0
2018-Jan-10 20:31N 39°27' W 075°60'0 0.0
2018-Jan-10 20:00N 39°27' W 075°60'0 0.0
2018-Jan-10 19:30N 39°27' W 075°60'0 0.0
2018-Jan-10 19:01N 39°27' W 075°60'0 0.0
2018-Jan-10 18:30N 39°27' W 075°60'0 0.0
2018-Jan-10 17:59N 39°27' W 075°60'0 0.0
2018-Jan-10 17:31N 39°27' W 075°60'0 0.0
2018-Jan-10 17:00N 39°27' W 075°60'0 0.0
2018-Jan-10 16:30N 39°27' W 075°60'0 0.0
2018-Jan-10 16:00N 39°27' W 075°60'0 0.0
2018-Jan-10 15:30N 39°27' W 075°60'0 0.0
2018-Jan-10 15:00N 39°27' W 075°60'0 0.0
2018-Jan-10 14:30N 39°27' W 075°60'0 0.0
2018-Jan-10 14:01N 39°27' W 075°60'0 0.0
2018-Jan-10 13:30N 39°27' W 075°60'0 0.0
2018-Jan-10 13:01N 39°27' W 075°60'0 0.0
2018-Jan-10 12:30N 39°27' W 075°60'0 0.0
2018-Jan-10 12:01N 39°27' W 075°60'0 0.0
2018-Jan-10 11:30N 39°27' W 075°60'0 0.0
2018-Jan-10 11:00N 39°27' W 075°60'0 0.0
2018-Jan-10 10:30N 39°27' W 075°60'0 0.0
2018-Jan-10 10:00N 39°27' W 075°60'0 0.0
2018-Jan-10 09:30N 39°27' W 075°60'0 0.0
2018-Jan-10 09:01N 39°27' W 075°60'0 0.0
2018-Jan-10 08:31N 39°27' W 075°60'0 0.0
2018-Jan-10 08:00N 39°27' W 075°60'0 0.0
2018-Jan-10 07:30N 39°27' W 075°60'0 0.0
2018-Jan-10 07:00N 39°27' W 075°60'0 0.0
2018-Jan-10 06:30N 39°27' W 075°60'  

Dump ship's entire track history